Aviation Digital Data Service (ADDS)

Output produced by METARs form (2339 UTC 25 February 2018)
found at http://www.aviationweather.gov/adds/metars/
 
FMCH 252200Z 10004KT 9999 SCT022 27/24 Q1010 NOSIG
TAF FMCH 251700Z 2518/2624 08003KT 9999 FEW020TCU SCT030 
     BECMG 2605/2607 34010KT 
     PROB30 
     TEMPO 2609/2616 3000 TS SHRA FEW020CB SCT030 
     BECMG 2616/2618 VRB02KT